Time;durP1;ratioP1;P1;durP2;ratioP2;P2;SDS_P1;SDS_P2;PMS_P1;PMS_P2;Temp;Humidity;BMP_temperature;BMP_pressure;BME280_temperature;BME280_humidity;BME280_pressure;Samples;Min_cycle;Max_cycle;Signal;HPM_P1;HPM_P2
2022/09/23 00:02:50;;;;;;;4.58;2.67;;;;;;;14.79;54.21;100548.57;2283724;85;27179;-77
2022/09/23 00:06:23;;;;;;;4.73;3.10;;;;;;;14.77;54.20;100547.66;2307947;84;25789;-77
2022/09/23 00:10:00;;;;;;;3.52;2.75;;;;;;;14.73;54.27;100543.70;2267550;85;25695;-77
2022/09/23 00:13:24;;;;;;;3.35;2.92;;;;;;;14.71;54.30;100546.29;2267380;85;26015;-77
2022/09/23 00:16:47;;;;;;;3.50;3.20;;;;;;;14.70;54.29;100547.16;2268097;85;25732;-77
2022/09/23 00:20:13;;;;;;;3.15;2.70;;;;;;;14.67;54.36;100543.63;2243713;87;25632;-77
2022/09/23 00:23:35;;;;;;;3.22;2.83;;;;;;;14.67;54.35;100542.33;2268005;85;25756;-77
2022/09/23 00:27:01;;;;;;;3.37;3.02;;;;;;;14.64;54.37;100536.17;2267975;85;31066;-78
2022/09/23 00:33:59;;;;;;;3.12;2.80;;;;;;;14.59;54.30;100532.64;2188836;90;25784;-79
2022/09/23 00:37:34;;;;;;;6.83;2.98;;;;;;;14.53;54.30;100536.94;2192646;88;25682;-79
2022/09/23 00:41:06;;;;;;;3.22;2.92;;;;;;;14.48;54.38;100537.28;2192751;90;25751;-77
2022/09/23 00:45:00;;;;;;;3.00;2.67;;;;;;;14.45;54.38;100532.91;2156757;90;25739;-77
2022/09/23 00:48:27;;;;;;;8.33;3.02;;;;;;;14.41;54.47;100535.94;2154082;90;26452;-78
2022/09/23 00:52:01;;;;;;;3.27;2.87;;;;;;;14.38;54.47;100535.02;2156647;90;25775;-77
2022/09/23 00:55:54;;;;;;;5.03;3.12;;;;;;;14.33;54.51;100532.33;2156751;88;25893;-77
2022/09/23 00:59:24;;;;;;;3.37;2.92;;;;;;;14.30;54.58;100532.30;2137070;91;25725;-77
2022/09/23 01:02:47;;;;;;;3.60;3.27;;;;;;;14.28;54.68;100538.41;2156101;91;25838;-76
2022/09/23 01:06:20;;;;;;;3.85;3.42;;;;;;;14.26;54.70;100534.44;2147830;91;25755;-77
2022/09/23 01:09:55;;;;;;;4.05;2.65;;;;;;;14.24;54.74;100529.63;2149194;90;26076;-77
2022/09/23 01:13:31;;;;;;;3.27;2.45;;;;;;;14.21;54.78;100530.00;2128912;91;25769;-77
2022/09/23 01:17:14;;;;;;;4.50;2.80;;;;;;;14.18;54.83;100535.67;2102641;93;25923;-77
2022/09/23 01:21:03;;;;;;;3.87;3.17;;;;;;;14.17;54.87;100525.16;2126163;91;25764;-77
2022/09/23 01:24:49;;;;;;;3.75;3.30;;;;;;;14.14;54.92;100522.09;2126487;91;25821;-77
2022/09/23 01:29:11;;;;;;;3.47;3.17;;;;;;;14.12;55.00;100522.93;2144408;90;25976;-77
2022/09/23 01:33:07;;;;;;;4.33;3.20;;;;;;;14.13;55.07;100526.86;2154061;89;26502;-78
2022/09/23 01:36:45;;;;;;;2.60;2.37;;;;;;;14.12;55.12;100522.93;2059089;94;26649;-78
2022/09/23 01:40:18;;;;;;;4.37;3.35;;;;;;;14.12;55.18;100521.62;2067320;93;25755;-78
2022/09/23 01:43:55;;;;;;;3.52;2.98;;;;;;;14.11;55.24;100518.55;2110582;92;25743;-77
2022/09/23 01:47:26;;;;;;;3.12;2.75;;;;;;;14.11;55.33;100512.00;2112701;92;25799;-77
2022/09/23 01:50:59;;;;;;;4.22;3.37;;;;;;;14.12;55.37;100525.11;2113060;93;25792;-77
2022/09/23 01:54:49;;;;;;;3.25;2.92;;;;;;;14.10;55.47;100514.16;2093216;93;25779;-77
2022/09/23 01:58:38;;;;;;;3.92;3.02;;;;;;;14.11;55.54;100517.24;2112804;92;25302;-78
2022/09/23 02:02:09;;;;;;;3.25;2.95;;;;;;;14.12;55.52;100518.56;2116157;92;25717;-78
2022/09/23 02:05:37;;;;;;;3.12;2.85;;;;;;;14.13;55.56;100512.44;2128918;91;25690;-77
2022/09/23 02:09:29;;;;;;;3.42;3.12;;;;;;;14.13;55.56;100512.88;2111470;92;25765;-78
2022/09/23 02:12:57;;;;;;;3.37;2.98;;;;;;;14.12;55.64;100519.87;2180526;85;29525;-78
2022/09/23 02:16:31;;;;;;;3.62;3.33;;;;;;;14.09;55.69;100515.90;2252925;87;25671;-77
2022/09/23 02:20:09;;;;;;;3.40;2.87;;;;;;;14.07;55.71;100511.49;2274542;85;25717;-78
2022/09/23 02:23:41;;;;;;;3.17;2.87;;;;;;;14.07;55.73;100512.40;2251989;85;25762;-78
2022/09/23 02:27:47;;;;;;;5.75;2.85;;;;;;;14.05;55.74;100513.23;2272454;85;25707;-78
2022/09/23 02:31:44;;;;;;;4.58;3.00;;;;;;;14.02;55.78;100514.07;2278134;84;25703;-78
2022/09/23 02:35:36;;;;;;;4.23;2.80;;;;;;;13.98;55.82;100516.22;2312131;84;25788;-78
2022/09/23 02:39:08;;;;;;;5.08;3.20;;;;;;;13.96;55.88;100523.17;2307893;85;25677;-79
2022/09/23 02:42:50;;;;;;;3.70;2.75;;;;;;;13.93;55.90;100513.95;2260613;84;25750;-78
2022/09/23 02:46:20;;;;;;;3.00;2.75;;;;;;;13.91;55.92;100511.77;2302218;84;26240;-78
2022/09/23 02:49:49;;;;;;;3.55;2.90;;;;;;;13.88;55.91;100513.91;2308253;84;34668;-78
2022/09/23 02:53:20;;;;;;;4.08;3.00;;;;;;;13.85;55.97;100510.38;2307520;84;25656;-78
2022/09/23 02:56:44;;;;;;;3.57;3.27;;;;;;;13.84;56.04;100515.17;2231002;87;25780;-77
2022/09/23 03:00:19;;;;;;;3.57;3.23;;;;;;;13.82;56.11;100512.95;2231312;88;25673;-78
2022/09/23 03:04:15;;;;;;;4.00;3.42;;;;;;;13.80;56.08;100518.16;2228937;84;25718;-77
2022/09/23 03:08:18;;;;;;;2.92;2.70;;;;;;;13.79;56.13;100516.41;2231493;87;25232;-77
2022/09/23 03:15:35;;;;;;;3.30;3.00;;;;;;;13.80;56.19;100515.54;2051400;95;25468;-76
2022/09/23 03:19:41;;;;;;;4.95;3.47;;;;;;;13.80;56.23;100519.91;2055496;94;25844;-76
2022/09/23 03:23:19;;;;;;;6.15;2.90;;;;;;;13.79;56.25;100516.41;2055142;96;26398;-77
2022/09/23 03:26:48;;;;;;;3.65;2.95;;;;;;;13.79;56.36;100514.22;2052073;94;25917;-76
2022/09/23 03:30:20;;;;;;;5.67;3.30;;;;;;;13.82;56.39;100511.64;2054733;94;25731;-76
2022/09/23 03:33:51;;;;;;;6.80;3.55;;;;;;;13.87;56.36;100513.47;2038891;95;25879;-77
2022/09/23 03:37:49;;;;;;;2.97;2.67;;;;;;;13.89;56.29;100511.73;2031507;96;25782;-77
2022/09/23 03:41:32;;;;;;;8.18;3.45;;;;;;;13.92;56.31;100516.14;2024710;96;25786;-76
2022/09/23 03:45:04;;;;;;;3.12;2.85;;;;;;;13.95;56.30;100512.25;2032382;94;25764;-77
2022/09/23 03:48:33;;;;;;;4.83;2.85;;;;;;;13.97;56.29;100509.62;1949934;100;25788;-76
2022/09/23 03:51:57;;;;;;;4.17;3.45;;;;;;;13.97;56.28;100509.19;1961360;97;33061;-77
2022/09/23 03:55:27;;;;;;;3.67;2.45;;;;;;;13.97;56.30;100500.02;2020432;96;25848;-77
2022/09/23 03:58:56;;;;;;;6.35;4.03;;;;;;;13.99;56.28;100510.53;2020475;96;25781;-76
2022/09/23 04:02:26;;;;;;;4.12;2.90;;;;;;;13.98;56.24;100510.97;2019724;97;25926;-77
2022/09/23 04:05:53;;;;;;;3.53;3.10;;;;;;;13.98;56.29;100509.66;2020433;96;25700;-78
2022/09/23 04:09:14;;;;;;;2.85;2.58;;;;;;;13.99;56.25;100504.86;1976822;97;25815;-77
2022/09/23 04:12:39;;;;;;;3.55;2.95;;;;;;;13.98;56.27;100506.16;2060796;94;31522;-76
2022/09/23 04:16:13;;;;;;;4.40;2.80;;;;;;;13.96;56.26;100502.20;2051758;94;25719;-77
2022/09/23 04:19:46;;;;;;;4.90;2.27;;;;;;;13.95;56.34;100504.38;2071277;94;25894;-76
2022/09/23 04:23:19;;;;;;;3.72;2.37;;;;;;;13.93;56.32;100504.34;2119718;92;25809;-77
2022/09/23 04:30:31;;;;;;;3.35;2.90;;;;;;;13.93;56.28;100516.58;2095500;93;25720;-77
2022/09/23 04:33:54;;;;;;;3.40;3.10;;;;;;;13.92;56.31;100510.89;2092359;93;25983;-77
2022/09/23 04:37:29;;;;;;;3.77;2.87;;;;;;;13.91;56.28;100517.88;2099229;93;25600;-76
2022/09/23 04:40:55;;;;;;;3.33;2.45;;;;;;;13.87;56.34;100516.09;2096584;94;25795;-76
2022/09/23 04:44:38;;;;;;;3.20;2.90;;;;;;;13.86;56.34;100518.67;2143499;87;25792;-76
2022/09/23 04:48:01;;;;;;;4.05;2.50;;;;;;;13.85;56.41;100515.61;2243023;88;25753;-76
2022/09/23 04:51:26;;;;;;;4.47;3.17;;;;;;;13.83;56.40;100508.16;2240777;86;25732;-77
2022/09/23 04:54:54;;;;;;;3.30;3.00;;;;;;;13.82;56.41;100509.02;2243176;86;26435;-76
2022/09/23 04:58:21;;;;;;;2.70;2.50;;;;;;;13.80;56.45;100512.92;2243327;86;25751;-77
2022/09/23 05:01:44;;;;;;;8.10;2.65;;;;;;;13.80;56.45;100512.92;2269915;86;25721;-76
2022/09/23 05:05:09;;;;;;;3.55;2.55;;;;;;;13.82;56.44;100515.58;2277244;85;30525;-77
2022/09/23 05:08:53;;;;;;;3.45;2.92;;;;;;;13.84;56.39;100509.50;2276357;85;25664;-77
2022/09/23 05:12:28;;;;;;;4.85;2.77;;;;;;;13.88;56.36;100509.98;2262882;86;25760;-77
2022/09/23 05:16:10;;;;;;;3.50;3.20;;;;;;;13.90;56.36;100506.96;2266544;86;25713;-78
2022/09/23 05:19:39;;;;;;;5.87;3.67;;;;;;;13.92;56.29;100513.08;2133261;90;25851;-77
2022/09/23 05:23:10;;;;;;;9.73;3.98;;;;;;;13.94;56.26;100510.06;2134060;90;25889;-77
2022/09/23 05:26:33;;;;;;;4.28;3.87;;;;;;;14.01;56.20;100512.77;2144536;92;25856;-77
2022/09/23 05:29:54;;;;;;;4.30;3.90;;;;;;;14.07;56.06;100515.42;2144516;90;25760;-78
2022/09/23 05:33:18;;;;;;;3.67;3.37;;;;;;;14.14;55.95;100514.22;2144436;89;25763;-77
2022/09/23 05:36:44;;;;;;;3.80;3.40;;;;;;;14.20;55.86;100516.02;2145845;90;26209;-77
2022/09/23 05:40:08;;;;;;;4.20;3.77;;;;;;;14.25;55.80;100509.53;2145876;90;25644;-76
2022/09/23 05:43:51;;;;;;;3.62;3.33;;;;;;;14.32;55.71;100510.03;2145551;92;25682;-77
2022/09/23 05:47:13;;;;;;;3.70;3.40;;;;;;;14.40;55.64;100517.54;2083829;93;26081;-77
2022/09/23 05:50:33;;;;;;;3.45;3.15;;;;;;;14.49;55.55;100525.51;2066232;93;25831;-77
2022/09/23 05:54:08;;;;;;;3.85;3.50;;;;;;;14.51;55.45;100525.54;2044937;95;30900;-76
2022/09/23 05:57:40;;;;;;;4.80;3.02;;;;;;;14.52;55.40;100526.02;2102842;92;25767;-77
2022/09/23 06:01:03;;;;;;;4.20;3.60;;;;;;;14.60;55.37;100527.83;2134531;91;26044;-77
2022/09/23 06:08:16;;;;;;;4.17;3.27;;;;;;;14.87;55.19;100531.56;2120369;91;25785;-76
2022/09/23 06:11:46;;;;;;;5.40;3.60;;;;;;;15.00;55.09;100533.87;2122826;93;25294;-77
2022/09/23 06:15:16;;;;;;;6.37;3.52;;;;;;;15.13;54.92;100536.16;2129582;91;25846;-76
2022/09/23 06:18:39;;;;;;;4.45;4.05;;;;;;;15.20;54.77;100536.20;2146891;90;25845;-77
2022/09/23 06:22:02;;;;;;;3.72;3.42;;;;;;;15.29;54.69;100527.09;2147449;90;25997;-77
2022/09/23 06:25:23;;;;;;;4.40;3.58;;;;;;;15.41;54.57;100530.66;2149717;90;26009;-79
2022/09/23 06:28:49;;;;;;;4.30;3.52;;;;;;;15.58;54.61;100539.07;2154499;90;30326;-77
2022/09/23 06:32:16;;;;;;;2.87;2.62;;;;;;;15.78;54.45;100524.75;2151993;90;26413;-78
2022/09/23 06:35:44;;;;;;;4.58;3.77;;;;;;;15.99;54.22;100525.27;2136997;89;25848;-81
2022/09/23 06:39:05;;;;;;;6.25;3.20;;;;;;;16.20;54.03;100531.06;2174401;89;25765;-79
2022/09/23 06:42:39;;;;;;;3.85;2.58;;;;;;;16.48;54.20;100532.45;2143948;91;25896;-79
2022/09/23 06:46:07;;;;;;;6.55;3.50;;;;;;;16.65;54.15;100525.45;2123960;91;25787;-79
2022/09/23 06:49:30;;;;;;;4.45;2.55;;;;;;;16.66;54.22;100527.19;2138287;91;26122;-79
2022/09/23 06:52:58;;;;;;;3.70;2.50;;;;;;;16.64;54.01;100524.14;2138922;92;26453;-79
2022/09/23 06:56:20;;;;;;;10.48;2.42;;;;;;;16.62;54.69;100528.52;2139119;91;25421;-79
2022/09/23 06:59:52;;;;;;;2.87;2.62;;;;;;;16.63;54.28;100524.55;2138190;91;25818;-78
2022/09/23 07:03:17;;;;;;;;;;;;;;;16.68;54.86;100536.42;2138880;91;26066;-78
2022/09/23 07:06:44;;;;;;;2.90;2.55;;;;;;;16.75;55.18;100529.88;2132321;91;25782;-78
2022/09/23 07:10:13;;;;;;;9.38;4.03;;;;;;;17.00;54.69;100533.38;2131934;91;26129;-77
2022/09/23 07:13:48;;;;;;;5.53;5.05;;;;;;;17.16;53.98;100533.39;2131383;91;25868;-79
2022/09/23 07:17:16;;;;;;;5.17;4.40;;;;;;;19.23;52.11;100535.89;2151602;91;25764;-78
2022/09/23 07:20:37;;;;;;;5.92;5.00;;;;;;;21.55;48.85;100545.50;2136628;90;25878;-77
2022/09/23 07:24:04;;;;;;;5.25;4.78;;;;;;;23.93;45.21;100547.46;2175292;90;25881;-80
2022/09/23 07:27:28;;;;;;;3.98;3.62;;;;;;;26.03;42.28;100555.23;2175442;89;25906;-80
2022/09/23 07:30:51;;;;;;;4.33;2.83;;;;;;;28.28;40.33;100562.31;2073199;94;26776;-79
2022/09/23 07:34:11;;;;;;;3.87;3.08;;;;;;;30.42;37.57;100565.77;2042588;95;25783;-80
2022/09/23 07:37:35;;;;;;;3.17;2.87;;;;;;;32.32;35.25;100570.58;2039884;95;25780;-80
2022/09/23 07:41:12;;;;;;;3.25;2.95;;;;;;;33.93;32.96;100580.91;2050650;94;25872;-80
2022/09/23 07:44:56;;;;;;;3.07;2.77;;;;;;;35.25;31.15;100585.66;2104882;93;25765;-80
2022/09/23 07:48:23;;;;;;;4.05;3.62;;;;;;;36.54;29.04;100583.66;2122209;90;25741;-79
2022/09/23 07:51:55;;;;;;;;;;;;;;;37.69;27.42;100584.83;2124267;91;26041;-89
2022/09/23 07:55:53;;;;;;;3.42;3.17;;;;;;;38.00;24.34;100586.23;2121627;91;25808;-87
2022/09/23 07:59:45;;;;;;;4.53;3.05;;;;;;;37.31;23.89;100587.62;2121399;89;25987;-89
2022/09/23 08:03:25;;;;;;;3.10;2.80;;;;;;;36.80;23.36;100584.72;1991366;97;25813;-87
2022/09/23 08:10:38;;;;;;;7.35;3.08;;;;;;;36.25;22.76;100573.80;1865083;104;25921;-81
2022/09/23 08:14:24;;;;;;;;;;;;;;;;;;;;;
2022/09/23 08:17:35;;;;;;;2.52;2.27;;;;;;;36.34;22.48;100572.17;1865595;105;25864;-83
2022/09/23 08:21:19;;;;;;;3.17;2.98;;;;;;;36.34;22.26;100573.03;1911296;100;26126;-84
2022/09/23 08:24:53;;;;;;;4.62;3.00;;;;;;;36.40;22.11;100573.03;1898029;101;25947;-81
2022/09/23 08:28:25;;;;;;;2.87;2.67;;;;;;;36.69;22.06;100567.06;1918850;101;25868;-81
2022/09/23 08:32:05;;;;;;;4.05;2.35;;;;;;;36.86;21.59;100567.41;1916703;101;26051;-83
2022/09/23 08:35:25;;;;;;;3.17;2.90;;;;;;;36.98;21.26;100559.23;1907543;101;26042;-83
2022/09/23 08:38:56;;;;;;;2.72;2.47;;;;;;;36.88;21.13;100559.11;1891845;102;25852;-84
2022/09/23 08:42:48;;;;;;;4.03;2.75;;;;;;;36.96;21.10;100555.27;1833275;105;25906;-83
2022/09/23 08:46:24;;;;;;;2.80;2.60;;;;;;;37.10;20.83;100556.84;1775215;109;26195;-83
2022/09/23 08:50:44;;;;;;;2.37;2.03;;;;;;;37.22;20.83;100552.20;1776380;109;25937;-83
2022/09/23 08:54:14;;;;;;;1.98;1.87;;;;;;;37.46;20.59;100549.24;1772076;109;25868;-82
2022/09/23 08:58:20;;;;;;;4.35;2.40;;;;;;;36.41;20.76;100543.52;1809126;105;25884;-83
2022/09/23 09:02:09;;;;;;;7.15;2.35;;;;;;;36.15;21.04;100542.47;1905351;103;25934;-81
2022/09/23 09:05:31;;;;;;;1.98;1.87;;;;;;;36.23;20.86;100539.62;1876703;103;25896;-82
2022/09/23 09:09:03;;;;;;;2.42;2.22;;;;;;;36.16;20.97;100526.55;1856113;105;25830;-82
2022/09/23 09:13:03;;;;;;;2.27;2.08;;;;;;;35.07;20.95;100522.52;1858714;104;26333;-81
2022/09/23 09:17:06;;;;;;;2.35;2.15;;;;;;;33.19;22.19;100516.23;1855862;101;26189;-81
2022/09/23 09:21:08;;;;;;;3.70;2.62;;;;;;;32.31;23.31;100510.36;1869361;104;25789;-84
2022/09/23 09:24:36;;;;;;;;;;;;;;;31.21;24.00;100503.25;1904251;102;26267;-85
2022/09/23 09:28:20;;;;;;;;;;;;;;;;;;;;;
2022/09/23 09:31:51;;;;;;;1.40;1.27;;;;;;;29.20;26.48;100497.47;1794753;107;25858;-80
2022/09/23 09:35:49;;;;;;;0.60;0.60;;;;;;;30.43;25.72;100498.41;1835023;106;25824;-81
2022/09/23 09:39:29;;;;;;;1.37;0.62;;;;;;;31.88;24.51;100496.06;1805338;106;25975;-81
2022/09/23 09:43:13;;;;;;;1.72;0.80;;;;;;;32.19;23.43;100493.61;1833230;101;25875;-81
2022/09/23 09:47:31;;;;;;;2.00;0.95;;;;;;;31.37;23.67;100504.58;1914959;101;26003;-81
2022/09/23 09:50:51;;;;;;;0.60;0.60;;;;;;;30.41;23.56;100489.58;1917999;101;25854;-82
2022/09/23 09:54:51;;;;;;;0.82;0.50;;;;;;;30.28;24.45;100485.38;1928554;99;25710;-81
2022/09/23 09:58:32;;;;;;;2.35;0.50;;;;;;;31.28;24.19;100476.81;1946142;99;25854;-82
2022/09/23 10:06:41;;;;;;;3.83;0.80;;;;;;;31.21;23.99;100476.80;1945387;100;25819;-79
2022/09/23 10:10:27;;;;;;;1.75;0.55;;;;;;;30.56;23.99;100475.70;1954583;100;25819;-81
2022/09/23 10:19:05;;;;;;;2.25;0.42;;;;;;;31.23;23.72;100465.47;1962563;99;25837;-80
2022/09/23 10:22:41;;;;;;;0.33;0.30;;;;;;;31.60;24.00;100457.84;1868351;104;25899;-81
2022/09/23 10:30:51;;;;;;;0.50;0.50;;;;;;;31.69;23.35;100443.30;1846801;105;25345;-81
2022/09/23 10:34:36;;;;;;;;;;;;;;;;;;;;;
2022/09/23 10:48:34;;;;;;;;;;;;;;;;;;;;;
2022/09/23 10:52:23;;;;;;;1.02;0.60;;;;;;;30.85;22.17;100439.05;1764030;106;26358;-81
2022/09/23 10:56:03;;;;;;;1.02;0.30;;;;;;;30.79;22.72;100429.50;1799100;108;25871;-83
2022/09/23 10:59:32;;;;;;;2.22;0.75;;;;;;;30.80;22.79;100429.02;1786986;108;26071;-85
2022/09/23 11:03:45;;;;;;;0.98;0.50;;;;;;;30.54;22.85;100417.97;1766180;108;26089;-83
2022/09/23 11:07:36;;;;;;;1.80;0.50;;;;;;;30.64;23.04;100430.37;1787179;109;26494;-83
2022/09/23 11:11:32;;;;;;;2.45;0.47;;;;;;;30.90;23.09;100427.51;1825271;106;26383;-84
2022/09/23 11:15:09;;;;;;;0.85;0.55;;;;;;;31.28;22.71;100425.63;1804903;103;25872;-84
2022/09/23 11:27:08;;;;;;;2.05;0.60;;;;;;;32.15;21.51;100413.86;1924219;98;25852;-82
2022/09/23 11:35:12;;;;;;;4.60;0.70;;;;;;;31.85;20.99;100410.81;1894091;102;26142;-83
2022/09/23 11:39:04;;;;;;;0.85;0.40;;;;;;;31.95;20.83;100409.28;1853712;102;25802;-82
2022/09/23 11:42:39;;;;;;;3.50;0.60;;;;;;;32.31;20.71;100406.97;1928111;100;25760;-82
2022/09/23 11:46:12;;;;;;;1.00;0.45;;;;;;;32.72;20.57;100400.14;1907603;102;25889;-84
2022/09/23 11:49:44;;;;;;;0.78;0.60;;;;;;;32.31;20.25;100401.58;1909276;103;25792;-84
2022/09/23 11:53:32;;;;;;;0.88;0.70;;;;;;;31.40;20.41;100393.07;1906796;102;25828;-84
2022/09/23 11:57:05;;;;;;;3.80;1.00;;;;;;;31.20;20.42;100392.94;1907373;103;25801;-85
2022/09/23 12:08:36;;;;;;;4.65;0.80;;;;;;;28.26;21.74;100376.55;1847872;106;25988;-83
2022/09/23 12:12:36;;;;;;;;;;;;;;;;;;;;;
2022/09/23 12:16:18;;;;;;;2.22;0.80;;;;;;;26.60;23.32;100377.93;1799483;108;25367;-83
2022/09/23 12:20:12;;;;;;;0.70;0.70;;;;;;;25.98;23.92;100368.86;1800944;108;25891;-83
2022/09/23 12:24:27;;;;;;;1.77;0.57;;;;;;;26.12;24.72;100361.63;1772905;108;25875;-82
2022/09/23 12:28:33;;;;;;;1.07;0.70;;;;;;;26.80;24.68;100357.88;1756991;107;30983;-83
2022/09/23 12:32:33;;;;;;;2.22;0.50;;;;;;;27.28;24.55;100348.60;1742491;111;26011;-83
2022/09/23 12:36:06;;;;;;;1.05;0.47;;;;;;;27.54;24.35;100350.06;1751618;108;25831;-82
2022/09/23 12:39:45;;;;;;;1.57;0.50;;;;;;;27.74;24.13;100348.23;1734289;109;25949;-81
2022/09/23 12:43:25;;;;;;;1.85;0.60;;;;;;;28.51;24.17;100348.03;1741085;109;25901;-81
2022/09/23 12:47:03;;;;;;;0.72;0.53;;;;;;;28.51;24.17;100348.03;1780531;108;25878;-81
2022/09/23 12:51:13;;;;;;;0.98;0.60;;;;;;;28.81;23.71;100344.23;1827366;108;25810;-81
2022/09/23 12:54:40;;;;;;;2.00;0.80;;;;;;;28.88;23.41;100336.72;1890110;103;25862;-81
2022/09/23 12:58:01;;;;;;;3.83;1.32;;;;;;;28.22;23.49;100336.95;1911048;100;25887;-86
2022/09/23 13:01:36;;;;;;;0.65;0.50;;;;;;;27.70;23.87;100340.81;1999447;97;25925;-83
2022/09/23 13:09:17;;;;;;;2.52;0.53;;;;;;;27.66;24.00;100335.69;2070222;94;25647;-81
2022/09/23 13:12:52;;;;;;;0.95;0.57;;;;;;;27.16;24.16;100333.56;1970593;97;25820;-82
2022/09/23 13:16:39;;;;;;;0.82;0.57;;;;;;;26.57;24.50;100323.25;1971114;98;25431;-83
2022/09/23 13:20:37;;;;;;;4.15;0.62;;;;;;;26.11;24.77;100322.02;1970442;99;25787;-82
2022/09/23 13:24:28;;;;;;;1.05;0.60;;;;;;;25.72;25.32;100326.27;1970556;99;25830;-82
2022/09/23 13:28:02;;;;;;;1.60;0.62;;;;;;;25.20;25.69;100323.36;2100531;91;25516;-82
2022/09/23 13:31:48;;;;;;;4.05;0.50;;;;;;;24.56;26.28;100318.15;2130080;91;25756;-82
2022/09/23 13:35:14;;;;;;;1.67;0.50;;;;;;;24.04;26.88;100307.45;2127123;91;26006;-80
2022/09/23 13:39:47;;;;;;;1.00;0.50;;;;;;;23.62;27.59;100303.87;2104520;92;25346;-82
2022/09/23 13:43:29;;;;;;;2.87;0.50;;;;;;;23.47;28.01;100303.03;2088262;91;25708;-83
2022/09/23 13:46:58;;;;;;;1.37;0.68;;;;;;;23.25;28.38;100294.81;2096211;94;25596;-81
2022/09/23 13:50:53;;;;;;;6.42;0.60;;;;;;;23.03;28.64;100299.45;2200656;86;25711;-81
2022/09/23 13:54:50;;;;;;;0.72;0.45;;;;;;;22.80;29.03;100297.87;2245868;86;25771;-82
2022/09/23 13:58:31;;;;;;;3.12;0.90;;;;;;;22.52;29.38;100291.13;2247224;86;25720;-80
2022/09/23 14:02:01;;;;;;;1.40;0.80;;;;;;;22.37;29.80;100285.75;2244949;86;25803;-80
2022/09/23 14:05:33;;;;;;;1.82;0.55;;;;;;;22.67;30.21;100279.20;2218486;86;25735;-82
2022/09/23 14:12:49;;;;;;;3.27;0.50;;;;;;;22.86;30.36;100282.62;2159368;90;25333;-83
2022/09/23 14:16:25;;;;;;;3.08;0.60;;;;;;;22.56;30.72;100275.52;2046511;95;25846;-81
2022/09/23 14:20:10;;;;;;;1.22;0.60;;;;;;;22.26;31.16;100276.73;2049118;93;25802;-82
2022/09/23 14:23:36;;;;;;;1.45;0.57;;;;;;;21.99;31.48;100279.61;2059156;93;25357;-85
2022/09/23 14:27:27;;;;;;;0.93;0.50;;;;;;;21.74;31.82;100272.72;2071230;93;25801;-80
2022/09/23 14:31:05;;;;;;;2.87;0.60;;;;;;;21.59;32.15;100273.06;2071730;95;25762;-81
2022/09/23 14:34:53;;;;;;;1.10;0.50;;;;;;;21.41;32.51;100276.56;2073574;94;25757;-83
2022/09/23 14:38:59;;;;;;;2.60;0.60;;;;;;;21.31;32.95;100272.34;2074878;91;25797;-80
2022/09/23 14:42:52;;;;;;;;;;;;;;;;;;;;;
2022/09/23 14:46:31;;;;;;;2.15;0.70;;;;;;;21.06;33.48;100263.16;1942449;100;26126;-80
2022/09/23 14:53:52;;;;;;;1.22;0.78;;;;;;;21.03;33.66;100260.16;1851573;105;25843;-81
2022/09/23 14:57:28;;;;;;;0.98;0.65;;;;;;;20.87;33.79;100262.70;1821450;107;25774;-82
2022/09/23 15:00:59;;;;;;;1.80;0.60;;;;;;;20.70;33.90;100248.47;1824515;107;25799;-80
2022/09/23 15:04:39;;;;;;;2.35;0.57;;;;;;;20.71;33.95;100252.85;1825097;107;26444;-80
2022/09/23 15:08:03;;;;;;;3.15;0.70;;;;;;;20.77;33.89;100247.44;1917079;100;25878;-80
2022/09/23 15:11:30;;;;;;;2.80;0.62;;;;;;;20.64;33.98;100246.80;1874674;104;25906;-80
2022/09/23 15:15:00;;;;;;;3.52;0.60;;;;;;;20.62;33.99;100246.41;1895366;101;25928;-81
2022/09/23 15:18:33;;;;;;;3.02;0.62;;;;;;;20.60;34.03;100246.45;1937975;100;26094;-81
2022/09/23 15:22:11;;;;;;;1.20;1.10;;;;;;;20.60;34.12;100245.13;1880055;103;25798;-80
2022/09/23 15:25:42;;;;;;;1.00;0.60;;;;;;;20.54;34.38;100245.70;1864445;104;26130;-80
2022/09/23 15:29:08;;;;;;;1.85;0.68;;;;;;;20.45;34.42;100242.30;1879612;103;25876;-80
2022/09/23 15:32:38;;;;;;;1.10;0.70;;;;;;;20.39;34.47;100239.77;1878735;103;25513;-80
2022/09/23 15:36:03;;;;;;;1.72;0.88;;;;;;;20.39;34.62;100233.59;1894868;103;25829;-81
2022/09/23 15:39:47;;;;;;;1.42;0.80;;;;;;;20.29;34.61;100228.92;1934148;99;25754;-81
2022/09/23 15:43:22;;;;;;;3.83;0.90;;;;;;;20.20;34.81;100239.67;1929794;101;25503;-81
2022/09/23 15:46:58;;;;;;;2.75;0.90;;;;;;;20.04;35.08;100233.77;1937007;102;25616;-81
2022/09/23 15:50:24;;;;;;;6.67;1.10;;;;;;;19.83;35.58;100237.66;1986832;96;25900;-80
2022/09/23 15:53:47;;;;;;;4.62;0.80;;;;;;;19.65;36.10;100232.23;2053642;94;25557;-80
2022/09/23 15:57:11;;;;;;;4.42;0.90;;;;;;;19.39;36.56;100235.69;1992481;99;25931;-83
2022/09/23 16:00:43;;;;;;;1.25;0.70;;;;;;;19.18;37.03;100236.42;2139888;90;25817;-80
2022/09/23 16:04:16;;;;;;;5.75;1.85;;;;;;;18.95;37.43;100243.34;2140067;90;25773;-80
2022/09/23 16:07:42;;;;;;;4.83;1.20;;;;;;;18.76;37.70;100236.53;2159456;87;25840;-85
2022/09/23 16:11:15;;;;;;;2.75;1.40;;;;;;;18.60;38.15;100238.02;2212577;87;25714;-81
2022/09/23 16:14:42;;;;;;;3.10;0.90;;;;;;;18.47;38.43;100242.13;2219142;87;26311;-79
2022/09/23 16:18:20;;;;;;;4.28;0.82;;;;;;;18.34;38.87;100243.57;2212997;88;25624;-81
2022/09/23 16:21:59;;;;;;;2.52;0.68;;;;;;;18.44;39.30;100240.84;2218994;87;26921;-78
2022/09/23 16:25:26;;;;;;;2.08;0.90;;;;;;;18.81;39.39;100240.00;2117252;91;25694;-80
2022/09/23 16:29:05;;;;;;;1.40;1.02;;;;;;;19.08;38.90;100242.28;2117421;92;25782;-79
2022/09/23 16:32:40;;;;;;;1.10;0.80;;;;;;;19.24;39.01;100241.63;2117609;91;25755;-80
2022/09/23 16:36:41;;;;;;;7.58;0.93;;;;;;;19.49;39.07;100243.91;2118519;91;25812;-80
2022/09/23 16:40:03;;;;;;;8.45;2.98;;;;;;;19.55;39.05;100246.47;2112405;90;25792;-82
2022/09/23 16:43:33;;;;;;;2.58;2.37;;;;;;;19.59;39.05;100243.73;2101787;92;25740;-78
2022/09/23 16:47:11;;;;;;;4.53;2.25;;;;;;;19.73;39.14;100234.30;2089982;93;25791;-81
2022/09/23 16:50:43;;;;;;;7.25;2.60;;;;;;;19.81;39.20;100242.12;2087128;93;25816;-81
2022/09/23 16:54:22;;;;;;;3.80;2.42;;;;;;;19.85;39.09;100238.98;2013592;97;25890;-80
2022/09/23 16:58:18;;;;;;;5.65;3.15;;;;;;;19.77;39.29;100239.08;2038445;95;25869;-80
2022/09/23 17:05:37;;;;;;;3.83;3.08;;;;;;;19.70;39.47;100231.69;2059270;94;25800;-80
2022/09/23 17:09:00;;;;;;;6.75;3.67;;;;;;;19.70;39.52;100235.66;2042737;94;26162;-80
2022/09/23 17:12:33;;;;;;;6.10;3.10;;;;;;;19.66;39.59;100229.14;2039086;95;26124;-81
2022/09/23 17:16:09;;;;;;;3.37;2.62;;;;;;;19.58;39.63;100228.78;2060785;94;25822;-80
2022/09/23 17:19:40;;;;;;;7.15;2.92;;;;;;;19.49;39.72;100232.02;2059777;94;26457;-81
2022/09/23 17:23:18;;;;;;;3.17;2.85;;;;;;;19.34;39.74;100235.31;2060695;94;25860;-81
2022/09/23 17:26:45;;;;;;;3.50;2.12;;;;;;;19.22;40.00;100238.13;2078749;92;46858;-81
2022/09/23 17:30:10;;;;;;;7.15;2.12;;;;;;;18.88;40.14;100235.94;2065259;94;26484;-82
2022/09/23 17:34:24;;;;;;;;;;;;;;;;;;;;;
2022/09/23 17:37:53;;;;;;;6.47;1.60;;;;;;;18.16;40.97;100233.22;2065003;94;25881;-80
2022/09/23 17:41:56;;;;;;;3.25;1.80;;;;;;;17.86;41.32;100237.88;2071420;93;25899;-84
2022/09/23 17:45:40;;;;;;;1.95;1.30;;;;;;;17.66;41.84;100245.04;2048311;95;26022;-82
2022/09/23 17:49:08;;;;;;;2.45;2.00;;;;;;;17.50;42.19;100240.31;2052678;95;25881;-81
2022/09/23 17:52:40;;;;;;;4.62;1.95;;;;;;;17.36;42.46;100243.48;1936430;100;26169;-80
2022/09/23 17:56:04;;;;;;;1.87;1.67;;;;;;;17.26;42.71;100243.11;2010031;95;25968;-80
2022/09/23 17:59:59;;;;;;;6.42;2.30;;;;;;;17.18;43.00;100236.58;2029715;96;31045;-82
2022/09/23 18:03:30;;;;;;;4.00;1.72;;;;;;;17.11;43.13;100237.05;2013528;97;25904;-80
2022/09/23 18:06:56;;;;;;;2.62;2.20;;;;;;;17.08;43.36;100240.16;2014466;95;25589;-80
2022/09/23 18:10:20;;;;;;;5.72;2.37;;;;;;;17.03;43.46;100238.84;1966727;100;25860;-81
2022/09/23 18:13:54;;;;;;;4.42;1.70;;;;;;;16.97;43.67;100234.91;2001936;97;26066;-80
2022/09/23 18:17:35;;;;;;;2.60;2.22;;;;;;;16.93;43.88;100237.13;1987593;95;26152;-82